Time;durP1;ratioP1;P1;durP2;ratioP2;P2;SDS_P1;SDS_P2;PMS_P1;PMS_P2;Temp;Humidity;BMP_temperature;BMP_pressure;BME280_temperature;BME280_humidity;BME280_pressure;Samples;Min_cycle;Max_cycle;Signal;HPM_P1;HPM_P2
2021/06/12 00:01:09;;;;;;;7.73;6.90;;;19.20;99.90;;;;;;5114052;28;20233;-67
2021/06/12 00:03:36;;;;;;;6.23;5.60;;;19.20;99.90;;;;;;5113653;28;20214;-69
2021/06/12 00:06:03;;;;;;;6.80;6.23;;;19.20;99.90;;;;;;5113668;28;20191;-67
2021/06/12 00:08:29;;;;;;;6.63;6.13;;;19.20;99.90;;;;;;5113859;28;20449;-67
2021/06/12 00:10:54;;;;;;;8.07;6.87;;;19.20;99.90;;;;;;5113693;28;20431;-67
2021/06/12 00:13:20;;;;;;;6.73;6.20;;;19.20;99.90;;;;;;5113851;28;20646;-68
2021/06/12 00:15:46;;;;;;;7.13;6.53;;;19.20;99.90;;;;;;5113785;28;20194;-67
2021/06/12 00:18:12;;;;;;;6.30;5.80;;;19.10;99.90;;;;;;5114371;28;20534;-68
2021/06/12 00:20:38;;;;;;;7.33;6.37;;;19.00;99.90;;;;;;5113567;28;20234;-69
2021/06/12 00:23:05;;;;;;;7.60;7.00;;;19.10;99.90;;;;;;5112456;28;20431;-68
2021/06/12 00:25:31;;;;;;;7.00;6.33;;;19.00;99.90;;;;;;5112361;28;20281;-68
2021/06/12 00:27:58;;;;;;;8.33;7.53;;;19.00;99.90;;;;;;5112564;28;20422;-68
2021/06/12 00:30:24;;;;;;;8.33;6.80;;;19.00;99.90;;;;;;5113667;28;20425;-68
2021/06/12 00:32:49;;;;;;;7.63;6.97;;;19.00;99.90;;;;;;5114163;28;20905;-68
2021/06/12 00:35:15;;;;;;;13.10;6.67;;;19.00;99.90;;;;;;5112261;28;20445;-67
2021/06/12 00:37:41;;;;;;;7.43;6.73;;;19.00;99.90;;;;;;5114074;28;20234;-67
2021/06/12 00:40:10;;;;;;;7.70;7.00;;;19.00;99.90;;;;;;5113506;28;20253;-68
2021/06/12 00:42:37;;;;;;;7.73;6.93;;;19.00;99.90;;;;;;5112362;28;20181;-67
2021/06/12 00:45:06;;;;;;;6.87;6.27;;;19.10;99.90;;;;;;5113435;28;20455;-68
2021/06/12 00:47:32;;;;;;;8.00;6.90;;;19.10;99.90;;;;;;5113811;28;20753;-68
2021/06/12 00:49:57;;;;;;;7.63;6.93;;;19.20;99.90;;;;;;5115214;28;20414;-67
2021/06/12 00:52:23;;;;;;;7.73;7.03;;;19.30;99.90;;;;;;5117533;28;20186;-68
2021/06/12 00:54:48;;;;;;;7.40;6.70;;;19.10;99.90;;;;;;5117003;28;20173;-67
2021/06/12 00:57:15;;;;;;;7.03;6.30;;;18.90;99.90;;;;;;5115920;28;20644;-67
2021/06/12 00:59:40;;;;;;;6.73;6.20;;;18.90;99.90;;;;;;5117090;28;20178;-67
2021/06/12 01:02:06;;;;;;;7.53;6.80;;;18.80;99.90;;;;;;5115452;28;20980;-67
2021/06/12 01:04:32;;;;;;;7.57;6.90;;;18.80;99.90;;;;;;5116875;28;20207;-68
2021/06/12 01:06:57;;;;;;;8.10;7.30;;;18.80;99.90;;;;;;5117056;28;20651;-67
2021/06/12 01:09:23;;;;;;;9.03;7.53;;;18.90;99.90;;;;;;5116803;28;20209;-68
2021/06/12 01:12:03;;;;;;;7.63;7.00;;;18.80;99.90;;;;;;5116957;28;20227;-67
2021/06/12 01:14:31;;;;;;;8.17;7.13;;;18.80;99.90;;;;;;5116717;28;20159;-67
2021/06/12 01:17:01;;;;;;;7.70;7.00;;;18.60;99.90;;;;;;5115441;28;20451;-68
2021/06/12 01:19:38;;;;;;;7.03;6.43;;;18.60;99.90;;;;;;5116522;28;20548;-69
2021/06/12 01:22:18;;;;;;;8.40;7.60;;;18.60;99.90;;;;;;5116615;28;20446;-67
2021/06/12 01:24:50;;;;;;;8.53;7.40;;;18.60;99.90;;;;;;5116544;28;20452;-68
2021/06/12 01:27:43;;;;;;;8.27;7.50;;;18.60;99.90;;;;;;5116872;28;20419;-67
2021/06/12 01:30:09;;;;;;;7.70;7.10;;;18.50;99.90;;;;;;5116254;28;20469;-69
2021/06/12 01:32:39;;;;;;;8.20;6.57;;;18.60;99.90;;;;;;5116315;28;20460;-67
2021/06/12 01:35:28;;;;;;;7.77;7.07;;;18.60;99.90;;;;;;5116290;28;20433;-68
2021/06/12 01:37:55;;;;;;;8.70;7.90;;;18.50;99.90;;;;;;5116791;28;20432;-67
2021/06/12 01:40:24;;;;;;;8.73;8.00;;;18.50;99.90;;;;;;5116105;28;20497;-68
2021/06/12 01:42:50;;;;;;;8.10;7.40;;;18.50;99.90;;;;;;5116333;28;20425;-68
2021/06/12 01:45:16;;;;;;;8.27;7.60;;;18.60;99.90;;;;;;5115984;28;20473;-68
2021/06/12 01:47:43;;;;;;;9.20;8.23;;;18.60;99.90;;;;;;5114891;28;20541;-69
2021/06/12 01:50:11;;;;;;;9.73;8.90;;;18.50;99.90;;;;;;5114559;28;20433;-68
2021/06/12 01:52:42;;;;;;;8.53;7.70;;;18.50;99.90;;;;;;5114930;28;20449;-67
2021/06/12 01:55:11;;;;;;;11.70;9.10;;;18.30;99.90;;;;;;5115797;28;20412;-68
2021/06/12 01:57:41;;;;;;;12.40;8.40;;;18.40;99.90;;;;;;5116321;28;20418;-67
2021/06/12 02:00:10;;;;;;;8.10;7.30;;;18.30;99.90;;;;;;5115427;28;20395;-67
2021/06/12 02:02:37;;;;;;;9.20;8.40;;;18.20;99.90;;;;;;5115958;28;20448;-68
2021/06/12 02:05:04;;;;;;;8.90;8.00;;;18.30;99.90;;;;;;5115560;28;20459;-68
2021/06/12 02:07:31;;;;;;;8.97;8.17;;;18.30;99.90;;;;;;5116032;28;20413;-68
2021/06/12 02:09:58;;;;;;;8.30;7.60;;;18.30;99.90;;;;;;5114235;28;20417;-68
2021/06/12 02:12:28;;;;;;;9.20;8.40;;;18.40;99.90;;;;;;5114452;28;20422;-68
2021/06/12 02:14:56;;;;;;;8.97;8.17;;;18.50;99.90;;;;;;5115499;28;20910;-67
2021/06/12 02:17:22;;;;;;;8.97;8.17;;;18.50;99.90;;;;;;5115880;28;20421;-67
2021/06/12 02:19:49;;;;;;;8.83;7.90;;;18.40;99.90;;;;;;5115237;28;20869;-68
2021/06/12 02:22:16;;;;;;;11.60;7.73;;;18.20;99.90;;;;;;5114090;28;20549;-68
2021/06/12 02:24:43;;;;;;;9.60;8.60;;;18.10;99.90;;;;;;5115253;28;20465;-67
2021/06/12 02:27:10;;;;;;;8.77;8.00;;;18.20;99.90;;;;;;5115512;28;20434;-68
2021/06/12 02:29:38;;;;;;;8.60;7.70;;;18.10;99.90;;;;;;5115204;28;20779;-67
2021/06/12 02:32:09;;;;;;;9.07;8.20;;;18.10;99.90;;;;;;5115417;28;20444;-69
2021/06/12 02:34:37;;;;;;;8.00;7.20;;;17.90;99.90;;;;;;5115164;28;20773;-68
2021/06/12 02:37:05;;;;;;;10.40;8.40;;;17.90;99.90;;;;;;5115338;28;21005;-67
2021/06/12 02:39:31;;;;;;;12.03;9.47;;;17.80;99.90;;;;;;5113707;28;20418;-69
2021/06/12 02:41:56;;;;;;;9.30;8.47;;;17.60;99.90;;;;;;5115179;28;20441;-67
2021/06/12 02:44:22;;;;;;;8.97;8.13;;;17.50;99.90;;;;;;5114710;28;20460;-68
2021/06/12 02:46:48;;;;;;;9.60;8.53;;;17.50;99.90;;;;;;5113602;28;20560;-69
2021/06/12 02:49:16;;;;;;;9.97;8.30;;;17.40;99.90;;;;;;5114977;28;20214;-68
2021/06/12 02:51:48;;;;;;;11.87;10.60;;;17.30;99.90;;;;;;5113537;28;20444;-67
2021/06/12 02:54:15;;;;;;;10.33;9.43;;;17.30;99.90;;;;;;5114882;28;20773;-67
2021/06/12 02:56:44;;;;;;;12.00;9.67;;;17.50;99.90;;;;;;5114849;28;20440;-68
2021/06/12 02:59:16;;;;;;;10.10;7.73;;;17.50;99.90;;;;;;5114700;28;20408;-67
2021/06/12 03:01:42;;;;;;;9.27;8.03;;;17.60;99.90;;;;;;5114826;28;20470;-67
2021/06/12 03:04:12;;;;;;;9.43;8.47;;;17.60;99.90;;;;;;5113025;28;20464;-69
2021/06/12 03:06:39;;;;;;;9.37;8.10;;;17.70;99.90;;;;;;5114644;28;20476;-67
2021/06/12 03:09:06;;;;;;;9.33;8.37;;;17.80;99.90;;;;;;5114487;28;20419;-68
2021/06/12 03:11:34;;;;;;;10.63;9.53;;;17.80;99.90;;;;;;5114135;28;20774;-68
2021/06/12 03:14:01;;;;;;;10.97;8.33;;;17.80;99.90;;;;;;5112836;28;20463;-69
2021/06/12 03:16:28;;;;;;;10.40;9.40;;;17.80;99.90;;;;;;5114477;28;20441;-67
2021/06/12 03:18:54;;;;;;;9.10;8.03;;;17.80;99.90;;;;;;5114328;28;20416;-67
2021/06/12 03:21:24;;;;;;;10.43;9.47;;;17.80;99.90;;;;;;5114476;28;20477;-67
2021/06/12 03:23:51;;;;;;;9.87;8.77;;;17.80;99.90;;;;;;5113955;28;20475;-68
2021/06/12 03:26:18;;;;;;;10.90;9.77;;;17.80;99.90;;;;;;5114444;28;20928;-67
2021/06/12 03:28:44;;;;;;;10.60;9.07;;;17.80;99.90;;;;;;5112968;28;21017;-69
2021/06/12 03:31:10;;;;;;;9.80;8.90;;;17.80;99.90;;;;;;5114216;28;20472;-69
2021/06/12 03:33:36;;;;;;;9.53;8.63;;;17.80;99.90;;;;;;5114257;28;20503;-67
2021/06/12 03:36:03;;;;;;;10.17;8.90;;;17.80;99.90;;;;;;5114047;28;20421;-67
2021/06/12 03:38:30;;;;;;;9.07;8.20;;;17.90;99.90;;;;;;5114126;28;20405;-66
2021/06/12 03:40:57;;;;;;;10.63;9.30;;;17.80;99.90;;;;;;5114044;28;20930;-67
2021/06/12 03:43:24;;;;;;;11.07;8.43;;;18.00;99.90;;;;;;5112591;28;20449;-69
2021/06/12 03:45:54;;;;;;;13.20;9.67;;;18.00;99.90;;;;;;5113925;28;20446;-67
2021/06/12 03:48:22;;;;;;;10.37;9.17;;;18.00;99.90;;;;;;5114351;28;20763;-68
2021/06/12 03:50:50;;;;;;;10.63;9.30;;;17.90;99.90;;;;;;5113841;28;20890;-69
2021/06/12 03:53:17;;;;;;;10.47;9.53;;;18.00;99.90;;;;;;5114111;28;20429;-68
2021/06/12 03:55:43;;;;;;;11.67;9.00;;;18.00;99.90;;;;;;5114009;28;20437;-67
2021/06/12 03:58:09;;;;;;;11.00;9.50;;;18.00;99.90;;;;;;5114419;28;20425;-68
2021/06/12 04:00:36;;;;;;;9.40;8.57;;;18.00;99.90;;;;;;5113926;28;20421;-68
2021/06/12 04:03:02;;;;;;;9.30;8.40;;;18.10;99.90;;;;;;5112643;28;20418;-68
2021/06/12 04:05:27;;;;;;;9.53;8.57;;;18.00;99.90;;;;;;5113705;28;21001;-68
2021/06/12 04:07:53;;;;;;;9.33;8.50;;;18.10;99.90;;;;;;5114399;28;20259;-67
2021/06/12 04:10:18;;;;;;;9.80;8.87;;;18.00;99.90;;;;;;5113816;28;20189;-66
2021/06/12 04:12:44;;;;;;;10.07;9.10;;;18.00;99.90;;;;;;5114236;28;20234;-68
2021/06/12 04:15:10;;;;;;;9.30;8.40;;;17.90;99.90;;;;;;5113776;28;20198;-67
2021/06/12 04:17:38;;;;;;;8.70;7.73;;;18.00;99.90;;;;;;5114055;28;20181;-68
2021/06/12 04:20:04;;;;;;;9.53;8.47;;;18.10;99.90;;;;;;5113522;28;20949;-67
2021/06/12 04:22:30;;;;;;;10.17;9.27;;;18.20;99.90;;;;;;5114248;28;20467;-68
2021/06/12 04:24:55;;;;;;;9.73;8.83;;;18.20;99.90;;;;;;5115635;28;20501;-67
2021/06/12 04:27:21;;;;;;;9.83;8.60;;;18.30;99.90;;;;;;5118017;28;20181;-68
2021/06/12 04:29:46;;;;;;;9.30;8.37;;;18.40;99.90;;;;;;5117594;28;20176;-68
2021/06/12 04:32:12;;;;;;;10.07;8.87;;;18.50;99.90;;;;;;5117755;28;20197;-67
2021/06/12 04:34:38;;;;;;;9.47;8.47;;;18.60;99.90;;;;;;5117515;28;20218;-68
2021/06/12 04:37:03;;;;;;;9.93;9.07;;;18.70;99.90;;;;;;5117617;28;20206;-68
2021/06/12 04:39:30;;;;;;;9.97;9.00;;;18.80;99.90;;;;;;5117373;28;20171;-69
2021/06/12 04:41:57;;;;;;;10.27;8.87;;;18.70;99.90;;;;;;5117542;28;20441;-67
2021/06/12 04:44:22;;;;;;;9.93;8.50;;;18.60;99.90;;;;;;5117010;28;20820;-68
2021/06/12 04:46:48;;;;;;;9.73;8.83;;;18.70;99.90;;;;;;5117438;28;20428;-68
2021/06/12 04:49:14;;;;;;;9.60;8.70;;;18.70;99.90;;;;;;5115926;28;20649;-69
2021/06/12 04:51:39;;;;;;;10.80;9.70;;;18.70;99.90;;;;;;5117330;28;20544;-68
2021/06/12 04:54:05;;;;;;;11.50;9.67;;;18.80;99.90;;;;;;5117144;28;20256;-68
2021/06/12 04:56:30;;;;;;;8.17;7.47;;;18.80;99.90;;;;;;5116969;28;20529;-67
2021/06/12 04:58:56;;;;;;;18.33;8.03;;;18.80;99.90;;;;;;5116977;28;20306;-68
2021/06/12 05:01:22;;;;;;;10.90;8.83;;;18.90;99.90;;;;;;5117034;28;20211;-68
2021/06/12 05:03:47;;;;;;;12.30;8.83;;;18.90;99.90;;;;;;5116745;28;20957;-69
2021/06/12 05:06:13;;;;;;;9.63;8.70;;;18.80;99.90;;;;;;5115840;28;20661;-68
2021/06/12 05:08:39;;;;;;;8.93;8.13;;;18.90;99.90;;;;;;5116815;28;20532;-68
2021/06/12 05:11:04;;;;;;;9.77;8.80;;;19.00;99.90;;;;;;5116662;28;20671;-67
2021/06/12 05:13:34;;;;;;;9.50;8.50;;;19.20;99.90;;;;;;5116771;28;20170;-69
2021/06/12 05:16:00;;;;;;;9.30;8.40;;;19.30;99.90;;;;;;5116612;28;20199;-68
2021/06/12 05:18:39;;;;;;;9.10;8.20;;;19.40;99.90;;;;;;5116696;28;20908;-68
2021/06/12 05:21:04;;;;;;;10.07;9.07;;;19.50;99.90;;;;;;5116585;28;20238;-67
2021/06/12 05:23:30;;;;;;;9.57;8.10;;;19.40;99.90;;;;;;5116375;28;20552;-67
2021/06/12 05:25:56;;;;;;;9.90;8.97;;;19.50;99.90;;;;;;5115017;28;20434;-67
2021/06/12 05:28:22;;;;;;;9.03;8.23;;;19.50;99.90;;;;;;5116400;28;20221;-69
2021/06/12 05:30:48;;;;;;;9.53;7.73;;;19.70;99.90;;;;;;5114939;28;20728;-70
2021/06/12 05:33:13;;;;;;;9.47;8.57;;;19.80;99.90;;;;;;5116375;28;20410;-69
2021/06/12 05:35:39;;;;;;;9.83;8.87;;;19.80;99.90;;;;;;5115528;28;20224;-67
2021/06/12 05:38:05;;;;;;;11.83;9.03;;;19.90;99.90;;;;;;5116763;28;20686;-67
2021/06/12 05:40:31;;;;;;;12.07;8.33;;;20.00;99.90;;;;;;5116132;28;20660;-67
2021/06/12 05:42:56;;;;;;;9.63;8.80;;;20.10;99.90;;;;;;5116498;28;20418;-69
2021/06/12 05:45:22;;;;;;;9.17;8.30;;;20.20;99.90;;;;;;5115966;28;20832;-68
2021/06/12 05:47:48;;;;;;;9.40;8.50;;;20.40;99.90;;;;;;5116529;28;20178;-68
2021/06/12 05:50:14;;;;;;;10.03;8.90;;;20.60;99.90;;;;;;5114778;28;20281;-67
2021/06/12 05:52:39;;;;;;;10.97;9.20;;;20.60;99.90;;;;;;5116390;28;20454;-67
2021/06/12 05:55:05;;;;;;;9.50;8.57;;;20.50;99.90;;;;;;5114633;28;20635;-67
2021/06/12 05:57:31;;;;;;;10.50;9.47;;;20.50;99.90;;;;;;5114842;28;20205;-67
2021/06/12 05:59:57;;;;;;;10.43;8.37;;;20.70;99.90;;;;;;5115725;28;20807;-68
2021/06/12 06:02:22;;;;;;;8.83;7.93;;;20.90;99.90;;;;;;5116213;28;20171;-68
2021/06/12 06:04:48;;;;;;;8.10;7.27;;;21.10;99.90;;;;;;5115593;28;20206;-68
2021/06/12 06:07:14;;;;;;;10.80;9.50;;;21.20;99.90;;;;;;5114235;28;20262;-68
2021/06/12 06:09:39;;;;;;;10.20;8.47;;;21.20;99.90;;;;;;5115702;28;20644;-69
2021/06/12 06:12:05;;;;;;;9.60;8.70;;;21.30;99.90;;;;;;5115798;28;20223;-68
2021/06/12 06:14:31;;;;;;;10.87;8.80;;;21.50;99.90;;;;;;5115423;28;20179;-68
2021/06/12 06:16:57;;;;;;;10.10;9.10;;;21.50;99.90;;;;;;5115592;28;20435;-68
2021/06/12 06:19:23;;;;;;;9.77;8.83;;;21.70;99.90;;;;;;5113891;28;20176;-69
2021/06/12 06:21:48;;;;;;;8.80;8.00;;;21.80;99.90;;;;;;5115631;28;20439;-69
2021/06/12 06:24:14;;;;;;;9.60;8.70;;;22.00;99.90;;;;;;5115068;28;20216;-69
2021/06/12 06:26:39;;;;;;;10.37;9.37;;;21.80;99.90;;;;;;5115389;28;20208;-69
2021/06/12 06:29:05;;;;;;;11.13;10.10;;;21.80;99.90;;;;;;5115223;28;20179;-69
2021/06/12 06:31:31;;;;;;;9.77;8.80;;;21.80;99.90;;;;;;5113798;28;20214;-68
2021/06/12 06:33:56;;;;;;;11.47;10.30;;;21.80;99.90;;;;;;5115096;28;20598;-69
2021/06/12 06:36:22;;;;;;;14.00;9.50;;;22.00;99.90;;;;;;5115150;28;20196;-69
2021/06/12 06:38:48;;;;;;;9.70;8.90;;;22.10;99.90;;;;;;5113753;28;20221;-70
2021/06/12 06:41:14;;;;;;;10.00;9.10;;;22.50;99.90;;;;;;5114952;28;20203;-68
2021/06/12 06:43:39;;;;;;;10.20;9.20;;;22.70;99.90;;;;;;5114808;28;20467;-69
2021/06/12 06:46:05;;;;;;;9.47;8.60;;;22.70;99.90;;;;;;5114595;28;20195;-69
2021/06/12 06:48:31;;;;;;;10.70;9.50;;;23.10;99.90;;;;;;5114339;28;20174;-68
2021/06/12 06:50:56;;;;;;;9.70;8.80;;;22.90;99.90;;;;;;5114726;28;20240;-68
2021/06/12 06:53:22;;;;;;;9.80;8.90;;;22.80;99.90;;;;;;5113530;28;20214;-68
2021/06/12 06:55:48;;;;;;;9.90;9.10;;;22.90;99.90;;;;;;5114585;28;20229;-70
2021/06/12 06:58:13;;;;;;;9.10;8.20;;;23.10;99.90;;;;;;5113452;28;20168;-68
2021/06/12 07:00:39;;;;;;;10.10;9.10;;;23.00;99.90;;;;;;5113293;28;20336;-67
2021/06/12 07:03:05;;;;;;;9.73;8.80;;;23.00;99.90;;;;;;5114598;28;20183;-67
2021/06/12 07:05:30;;;;;;;9.63;8.77;;;23.00;99.90;;;;;;5114327;28;20210;-69
2021/06/12 07:07:56;;;;;;;9.60;8.70;;;23.10;99.90;;;;;;5113522;28;20203;-67
2021/06/12 07:10:22;;;;;;;9.53;7.90;;;23.60;99.90;;;;;;5114429;28;20192;-67
2021/06/12 07:12:47;;;;;;;9.20;8.40;;;23.80;99.90;;;;;;5114926;28;20190;-69
2021/06/12 07:15:13;;;;;;;8.63;7.83;;;23.80;99.90;;;;;;5113116;28;20200;-67
2021/06/12 07:17:39;;;;;;;8.27;7.57;;;23.60;99.90;;;;;;5113150;28;20302;-68
2021/06/12 07:20:07;;;;;;;8.57;7.77;;;23.60;99.90;;;;;;5112965;28;20863;-68
2021/06/12 07:22:33;;;;;;;8.40;6.60;;;23.90;99.90;;;;;;5114795;28;20176;-67
2021/06/12 07:24:59;;;;;;;7.77;7.10;;;24.30;99.90;;;;;;5114004;28;20506;-68
2021/06/12 07:27:24;;;;;;;8.93;8.13;;;24.40;99.90;;;;;;5113199;28;20553;-67
2021/06/12 07:29:50;;;;;;;9.60;7.50;;;24.30;99.90;;;;;;5114147;28;20168;-68
2021/06/12 07:32:15;;;;;;;9.87;7.50;;;24.40;99.90;;;;;;5114561;28;20226;-68
2021/06/12 07:34:41;;;;;;;8.00;7.30;;;24.60;99.90;;;;;;5112972;28;20174;-69
2021/06/12 07:37:06;;;;;;;8.60;7.77;;;24.40;99.90;;;;;;5114425;28;20199;-67
2021/06/12 07:39:32;;;;;;;8.13;7.43;;;24.20;99.90;;;;;;5114189;28;20176;-68
2021/06/12 07:41:58;;;;;;;8.00;7.40;;;24.10;99.90;;;;;;5114361;28;20214;-69
2021/06/12 07:44:24;;;;;;;7.97;7.23;;;24.50;99.90;;;;;;5113868;28;20241;-70
2021/06/12 07:46:49;;;;;;;9.03;7.47;;;24.60;99.90;;;;;;5114211;28;20615;-69
2021/06/12 07:49:15;;;;;;;7.80;7.20;;;25.00;99.90;;;;;;5114144;28;20166;-69
2021/06/12 07:51:42;;;;;;;8.30;7.60;;;24.90;99.90;;;;;;5114255;28;20548;-68
2021/06/12 07:54:08;;;;;;;8.00;7.20;;;24.90;99.90;;;;;;5114055;28;20521;-68
2021/06/12 07:56:34;;;;;;;8.00;7.20;;;25.00;99.90;;;;;;5114085;28;20441;-69
2021/06/12 07:59:00;;;;;;;6.67;6.17;;;25.00;99.90;;;;;;5116001;28;20764;-68
2021/06/12 08:01:26;;;;;;;7.10;6.50;;;25.10;99.90;;;;;;5115885;28;20464;-68
2021/06/12 08:03:52;;;;;;;8.97;6.97;;;25.00;99.90;;;;;;5117771;28;20305;-69
2021/06/12 08:06:17;;;;;;;7.33;6.63;;;25.10;99.90;;;;;;5118223;28;20471;-68
2021/06/12 08:08:43;;;;;;;7.13;6.63;;;25.10;99.90;;;;;;5118076;28;20178;-69
2021/06/12 08:11:09;;;;;;;6.70;6.10;;;25.00;99.90;;;;;;5117668;27;20199;-69
2021/06/12 08:13:34;;;;;;;7.63;6.90;;;25.20;99.90;;;;;;5117826;27;20183;-68
2021/06/12 08:16:00;;;;;;;7.30;6.70;;;25.60;99.90;;;;;;5116516;28;20194;-69
2021/06/12 08:18:25;;;;;;;7.47;6.87;;;25.60;99.90;;;;;;5117926;28;20175;-69
2021/06/12 08:20:52;;;;;;;9.27;7.60;;;26.00;99.90;;;;;;5117595;28;20672;-68
2021/06/12 08:23:17;;;;;;;6.87;6.37;;;26.30;99.90;;;;;;5116407;28;20187;-69
2021/06/12 08:25:43;;;;;;;6.87;6.27;;;25.90;99.90;;;;;;5117440;28;20433;-68
2021/06/12 08:28:09;;;;;;;7.43;6.83;;;26.30;99.90;;;;;;5116563;28;20936;-68
2021/06/12 08:30:36;;;;;;;6.80;6.30;;;26.40;99.90;;;;;;5116341;28;20652;-68
2021/06/12 08:33:06;;;;;;;8.50;7.60;;;26.50;99.90;;;;;;5118073;28;20283;-68
2021/06/12 08:35:32;;;;;;;7.47;6.90;;;26.20;99.90;;;;;;5117671;28;20462;-69
2021/06/12 08:37:57;;;;;;;7.80;7.10;;;26.00;99.90;;;;;;5117946;28;20466;-70
2021/06/12 08:40:24;;;;;;;7.67;7.07;;;26.00;99.90;;;;;;5117424;28;20782;-68
2021/06/12 08:42:51;;;;;;;7.43;6.83;;;26.20;99.90;;;;;;5117852;28;20671;-68
2021/06/12 08:45:18;;;;;;;8.37;7.07;;;26.40;99.90;;;;;;5115774;28;20838;-68
2021/06/12 08:47:45;;;;;;;7.70;7.10;;;26.70;99.90;;;;;;5117712;28;20415;-68
2021/06/12 08:50:11;;;;;;;7.33;6.73;;;26.80;99.90;;;;;;5117204;28;20424;-67
2021/06/12 08:52:38;;;;;;;8.40;7.37;;;27.20;99.90;;;;;;5117170;28;20420;-68
2021/06/12 08:55:06;;;;;;;8.30;7.13;;;27.40;99.90;;;;;;5117000;28;20407;-68
2021/06/12 08:57:32;;;;;;;7.97;7.20;;;27.50;99.90;;;;;;5117564;28;20456;-69
2021/06/12 08:59:58;;;;;;;8.20;7.60;;;27.10;99.90;;;;;;5117016;28;20985;-68
2021/06/12 09:02:23;;;;;;;7.60;7.00;;;26.60;99.90;;;;;;5115796;28;20266;-68
2021/06/12 09:04:52;;;;;;;7.67;6.80;;;26.90;99.90;;;;;;5116668;28;20326;-67
2021/06/12 09:07:39;;;;;;;7.00;6.50;;;27.30;99.90;;;;;;5117385;28;20172;-68
2021/06/12 09:10:05;;;;;;;7.67;6.97;;;27.60;99.90;;;;;;5115754;28;20392;-69
2021/06/12 09:12:50;;;;;;;8.63;7.93;;;27.60;99.90;;;;;;5115907;28;20530;-69
2021/06/12 09:15:18;;;;;;;7.83;7.23;;;27.70;99.90;;;;;;5116610;28;20432;-68
2021/06/12 09:17:46;;;;;;;8.00;7.30;;;27.40;99.90;;;;;;5116626;28;20494;-69
2021/06/12 09:20:16;;;;;;;9.93;8.37;;;27.70;99.90;;;;;;5115139;28;20517;-68
2021/06/12 09:22:42;;;;;;;9.60;8.63;;;28.10;99.90;;;;;;5117085;28;20425;-68
2021/06/12 09:25:08;;;;;;;7.80;7.20;;;27.90;99.90;;;;;;5116184;28;20820;-68
2021/06/12 09:27:34;;;;;;;8.90;8.20;;;27.60;99.90;;;;;;5115322;28;20515;-68
2021/06/12 09:30:03;;;;;;;8.20;7.50;;;28.00;99.90;;;;;;5116318;28;20487;-69
2021/06/12 09:32:31;;;;;;;8.50;7.80;;;28.00;99.90;;;;;;5116355;28;20262;-69
2021/06/12 09:35:04;;;;;;;8.27;7.53;;;28.00;99.90;;;;;;5116310;28;20400;-68
2021/06/12 09:37:31;;;;;;;7.83;7.13;;;28.30;99.90;;;;;;5116722;28;20423;-68
2021/06/12 09:40:01;;;;;;;7.90;7.30;;;28.50;99.90;;;;;;5116151;28;20491;-68
2021/06/12 09:42:47;;;;;;;7.27;6.67;;;28.00;99.90;;;;;;5116591;28;20463;-68
2021/06/12 09:45:21;;;;;;;8.23;7.63;;;27.80;99.90;;;;;;5114577;28;20495;-69
2021/06/12 09:47:47;;;;;;;8.43;7.73;;;27.70;99.90;;;;;;5116576;28;20489;-69
2021/06/12 09:50:14;;;;;;;8.90;7.27;;;27.80;99.90;;;;;;5116071;28;20420;-69
2021/06/12 09:52:44;;;;;;;9.27;8.47;;;28.00;99.90;;;;;;5116493;28;20262;-68
2021/06/12 09:55:30;;;;;;;8.77;8.07;;;27.60;99.90;;;;;;5115808;28;20801;-69
2021/06/12 09:57:58;;;;;;;8.20;7.60;;;27.40;99.90;;;;;;5116507;28;20443;-69
2021/06/12 10:00:46;;;;;;;8.93;8.13;;;27.30;99.90;;;;;;5115804;27;20423;-68
2021/06/12 10:03:31;;;;;;;9.67;7.87;;;27.30;99.90;;;;;;5116330;28;20422;-68
2021/06/12 10:06:19;;;;;;;10.00;7.70;;;27.10;99.90;;;;;;5115529;27;20534;-68
2021/06/12 10:08:46;;;;;;;8.03;7.43;;;27.10;99.90;;;;;;5115790;28;20439;-69
2021/06/12 10:11:33;;;;;;;7.57;6.97;;;26.90;99.90;;;;;;5115735;28;20432;-68
2021/06/12 10:13:59;;;;;;;7.57;6.93;;;27.10;99.90;;;;;;5115385;28;20461;-68
2021/06/12 10:16:27;;;;;;;8.60;7.80;;;27.90;99.90;;;;;;5115714;28;20443;-68
2021/06/12 10:18:54;;;;;;;7.80;7.10;;;28.10;99.90;;;;;;5114246;28;20430;-69
2021/06/12 10:21:20;;;;;;;9.63;6.30;;;28.10;99.90;;;;;;5115335;28;20503;-68
2021/06/12 10:23:47;;;;;;;6.40;6.00;;;28.50;99.90;;;;;;5115311;28;20483;-68
2021/06/12 10:26:15;;;;;;;6.50;6.00;;;28.50;99.90;;;;;;5114029;28;20559;-68
2021/06/12 10:28:41;;;;;;;6.53;6.03;;;28.70;99.90;;;;;;5114053;28;20419;-68
2021/06/12 10:31:14;;;;;;;6.57;6.00;;;28.80;99.90;;;;;;5113797;28;20492;-68
2021/06/12 10:33:42;;;;;;;6.40;5.90;;;28.90;99.90;;;;;;5114974;28;20401;-69
2021/06/12 10:36:23;;;;;;;6.53;6.03;;;28.80;99.90;;;;;;5113474;28;20847;-68
2021/06/12 10:38:49;;;;;;;8.67;6.20;;;28.80;99.90;;;;;;5113170;28;20420;-68
2021/06/12 10:41:16;;;;;;;6.20;5.60;;;28.70;99.90;;;;;;5112884;28;20448;-67
2021/06/12 10:43:42;;;;;;;6.10;5.70;;;28.60;99.90;;;;;;5112254;28;20464;-68
2021/06/12 10:46:08;;;;;;;5.27;4.87;;;28.30;99.90;;;;;;5113376;28;20471;-68
2021/06/12 10:48:36;;;;;;;6.70;6.20;;;28.40;99.90;;;;;;5113918;28;20444;-70
2021/06/12 10:51:06;;;;;;;7.30;5.90;;;28.50;99.90;;;;;;5102730;28;20701;-68
2021/06/12 10:53:36;;;;;;;6.20;5.70;;;28.70;99.90;;;;;;5093354;28;20516;-67
2021/06/12 10:56:05;;;;;;;5.70;5.20;;;29.00;99.90;;;;;;5109967;28;20478;-67
2021/06/12 10:58:31;;;;;;;6.30;5.90;;;29.30;99.90;;;;;;5100792;28;20446;-68
2021/06/12 11:01:32;;;;;;;6.63;6.03;;;29.40;99.90;;;;;;5103346;27;20449;-69
2021/06/12 11:04:16;;;;;;;6.20;5.70;;;28.70;99.90;;;;;;5068295;28;20212;-69
2021/06/12 11:07:23;;;;;;;6.30;5.70;;;28.70;99.80;;;;;;5106661;28;20457;-68
2021/06/12 11:09:37;;;;;;;5.30;4.90;;;28.50;99.80;;;;;;5096654;28;20425;-68
2021/06/12 11:12:24;;;;;;;4.73;4.43;;;28.40;99.30;;;;;;5095390;28;20878;-68
2021/06/12 11:14:57;;;;;;;5.33;4.50;;;28.30;98.40;;;;;;5102058;28;20439;-68
2021/06/12 11:17:23;;;;;;;4.80;4.50;;;28.30;98.80;;;;;;5112527;28;20434;-69
2021/06/12 11:20:13;;;;;;;5.53;5.13;;;28.50;98.60;;;;;;5101813;28;20819;-68
2021/06/12 11:22:52;;;;;;;5.10;4.70;;;28.80;97.70;;;;;;5091439;28;20838;-68
2021/06/12 11:25:17;;;;;;;5.73;5.07;;;28.70;98.30;;;;;;5110904;28;20471;-69
2021/06/12 11:27:45;;;;;;;5.73;5.20;;;29.10;98.40;;;;;;5105206;28;20489;-68
2021/06/12 11:30:17;;;;;;;5.23;4.83;;;28.50;97.10;;;;;;5113402;28;20207;-69
2021/06/12 11:33:03;;;;;;;4.93;4.53;;;28.50;96.90;;;;;;5114259;28;20412;-68
2021/06/12 11:35:52;;;;;;;5.50;5.03;;;28.40;97.10;;;;;;5107057;28;20494;-68
2021/06/12 11:38:34;;;;;;;6.00;5.10;;;28.50;97.80;;;;;;5113164;28;20831;-68
2021/06/12 11:41:07;;;;;;;5.03;4.47;;;28.10;97.90;;;;;;5112623;28;20447;-68
2021/06/12 11:43:32;;;;;;;5.50;5.07;;;27.90;98.20;;;;;;5114010;28;20541;-69
2021/06/12 11:46:00;;;;;;;5.30;4.90;;;28.40;98.40;;;;;;5112978;28;20521;-68
2021/06/12 11:48:26;;;;;;;5.60;5.20;;;28.50;98.50;;;;;;5113952;28;20200;-68
2021/06/12 11:50:52;;;;;;;5.00;4.70;;;29.20;97.80;;;;;;5112572;28;20468;-68
2021/06/12 11:53:23;;;;;;;5.13;4.80;;;29.30;97.30;;;;;;5113983;28;20463;-68
2021/06/12 11:55:49;;;;;;;4.90;4.60;;;29.30;97.50;;;;;;5112573;28;20450;-68
2021/06/12 11:58:15;;;;;;;4.93;4.63;;;29.00;97.20;;;;;;5113893;28;20413;-70
2021/06/12 12:00:48;;;;;;;5.13;4.63;;;28.80;96.60;;;;;;5113898;28;20485;-68
2021/06/12 12:03:18;;;;;;;5.17;4.77;;;29.20;97.10;;;;;;5113836;28;20444;-68
2021/06/12 12:05:45;;;;;;;4.97;4.57;;;29.50;96.70;;;;;;5113858;28;20463;-67
2021/06/12 12:08:12;;;;;;;5.73;4.60;;;29.40;96.10;;;;;;5114322;28;20421;-69
2021/06/12 12:10:40;;;;;;;5.60;5.07;;;29.50;96.50;;;;;;5112502;28;20492;-67
2021/06/12 12:13:42;;;;;;;5.13;4.67;;;29.70;96.50;;;;;;5114329;28;20420;-67
2021/06/12 12:16:25;;;;;;;4.63;4.33;;;29.70;94.30;;;;;;5111999;28;20457;-69
2021/06/12 12:18:55;;;;;;;4.37;4.07;;;29.60;93.70;;;;;;5113650;28;20409;-70
2021/06/12 12:21:35;;;;;;;5.10;4.80;;;29.50;93.10;;;;;;5112409;28;20473;-67
2021/06/12 12:24:03;;;;;;;4.97;4.47;;;29.60;93.30;;;;;;5113663;28;20513;-69
2021/06/12 12:26:29;;;;;;;10.37;4.20;;;29.50;93.70;;;;;;5113587;28;20532;-68
2021/06/12 12:29:02;;;;;;;4.50;3.93;;;29.80;94.10;;;;;;5112414;28;20463;-69
2021/06/12 12:31:29;;;;;;;5.27;4.23;;;30.00;94.10;;;;;;5112582;28;20245;-68
2021/06/12 12:33:58;;;;;;;4.63;4.33;;;29.80;93.90;;;;;;5112186;28;20875;-69
2021/06/12 12:36:24;;;;;;;4.33;4.03;;;29.90;94.00;;;;;;5112159;28;20460;-67
2021/06/12 12:39:09;;;;;;;4.43;4.10;;;29.90;93.90;;;;;;5113513;28;20443;-68
2021/06/12 12:41:35;;;;;;;5.17;4.77;;;29.70;92.80;;;;;;5112352;28;20448;-67
2021/06/12 12:44:19;;;;;;;4.27;3.93;;;29.00;92.80;;;;;;5113754;28;20465;-68
2021/06/12 12:46:47;;;;;;;3.90;3.60;;;29.10;93.40;;;;;;5117523;28;20755;-68
2021/06/12 12:49:28;;;;;;;4.47;4.07;;;29.70;93.40;;;;;;5117281;28;20463;-67
2021/06/12 12:51:57;;;;;;;5.13;4.10;;;30.10;92.60;;;;;;5117470;28;20527;-67